Time;durP1;ratioP1;P1;durP2;ratioP2;P2;SDS_P1;SDS_P2;PMS_P1;PMS_P2;Temp;Humidity;BMP_temperature;BMP_pressure;BME280_temperature;BME280_humidity;BME280_pressure;Samples;Min_cycle;Max_cycle;Signal;HPM_P1;HPM_P2
2024/01/01 00:06:14;;;;;;;32.42;21.60;;;;;;;-142.43;100.00;63430.59;4929622;29;19945;-82
2024/01/01 00:08:48;;;;;;;20.80;11.18;;;;;;;-142.43;100.00;63430.59;4933140;29;20565;-83
2024/01/01 00:11:18;;;;;;;97.80;64.80;;;;;;;-142.43;100.00;63430.59;4935033;29;20083;-84
2024/01/01 00:13:51;;;;;;;20.27;11.35;;;;;;;-142.43;100.00;63430.59;4936846;29;20055;-83
2024/01/01 00:16:25;;;;;;;17.73;10.10;;;;;;;-142.43;100.00;63430.59;4935260;29;20071;-83
2024/01/01 00:18:55;;;;;;;20.60;11.45;;;;;;;-142.43;100.00;63430.59;4954414;28;20048;-83
2024/01/01 00:21:27;;;;;;;19.75;10.98;;;;;;;-142.43;100.00;63430.59;4957142;29;20039;-81
2024/01/01 00:23:58;;;;;;;18.65;9.50;;;;;;;-142.43;100.00;63430.59;4957453;29;20059;-82
2024/01/01 00:26:26;;;;;;;17.65;8.40;;;;;;;-142.43;100.00;63430.59;4956722;29;20054;-82
2024/01/01 00:28:55;;;;;;;25.60;13.13;;;;;;;-142.43;100.00;63430.59;4947690;29;20111;-82
2024/01/01 00:31:25;;;;;;;16.80;7.35;;;;;;;-142.43;100.00;63430.59;4941822;29;20127;-81
2024/01/01 00:33:52;;;;;;;15.05;7.05;;;;;;;-142.43;100.00;63430.59;4941156;29;20119;-82
2024/01/01 00:36:20;;;;;;;12.68;6.03;;;;;;;-142.43;100.00;63430.59;4939571;29;20467;-82
2024/01/01 00:38:51;;;;;;;10.60;5.22;;;;;;;-142.43;100.00;63430.59;4938527;29;20064;-81
2024/01/01 00:41:21;;;;;;;16.92;5.05;;;;;;;-142.43;100.00;63430.59;4937617;29;20051;-81
2024/01/01 00:43:49;;;;;;;14.25;5.38;;;;;;;-142.43;100.00;63430.59;4940403;29;20082;-82
2024/01/01 00:46:17;;;;;;;9.82;4.45;;;;;;;-142.43;100.00;63430.59;4942389;29;20059;-82
2024/01/01 00:48:44;;;;;;;12.23;5.10;;;;;;;-142.43;100.00;63430.59;4940018;29;20051;-83
2024/01/01 00:51:15;;;;;;;13.20;5.00;;;;;;;-142.43;100.00;63430.59;4939452;29;20052;-82
2024/01/01 00:53:47;;;;;;;13.18;4.32;;;;;;;-142.43;100.00;63430.59;4946468;29;20062;-82
2024/01/01 00:56:19;;;;;;;11.35;4.13;;;;;;;-142.43;100.00;63430.59;4953376;29;20054;-81
2024/01/01 00:58:51;;;;;;;9.85;4.50;;;;;;;-142.43;100.00;63430.59;4947909;29;20064;-82
2024/01/01 01:01:25;;;;;;;9.07;3.72;;;;;;;-142.43;100.00;63430.59;4945055;29;20118;-82
2024/01/01 01:03:58;;;;;;;11.32;3.60;;;;;;;-142.43;100.00;63430.59;4929372;29;20048;-82
2024/01/01 01:06:26;;;;;;;;;;;;;;;-142.43;100.00;63430.59;4945135;29;20058;-80
2024/01/01 01:08:57;;;;;;;8.07;4.07;;;;;;;-142.43;100.00;63430.59;4945001;29;19946;-82
2024/01/01 01:11:25;;;;;;;10.38;3.72;;;;;;;-142.43;100.00;63430.59;4950022;29;20495;-83
2024/01/01 01:13:57;;;;;;;8.70;4.10;;;;;;;-142.43;100.00;63430.59;4950256;29;20131;-81
2024/01/01 01:22:24;;;;;;;9.93;3.17;;;;;;;-142.43;100.00;63430.59;4931946;29;20048;-83
2024/01/01 01:24:56;;;;;;;11.02;3.55;;;;;;;-142.43;100.00;63430.59;4949838;29;20141;-82
2024/01/01 01:27:29;;;;;;;11.20;3.17;;;;;;;-142.43;100.00;63430.59;4944438;29;20055;-83
2024/01/01 01:30:16;;;;;;;15.02;3.25;;;;;;;-142.43;100.00;63430.59;4943176;29;20075;-82
2024/01/01 01:32:52;;;;;;;11.18;3.00;;;;;;;-142.43;100.00;63430.59;4939040;29;20094;-83
2024/01/01 01:35:27;;;;;;;11.85;3.55;;;;;;;-142.43;100.00;63430.59;4940531;29;20119;-82
2024/01/01 01:40:54;;;;;;;13.73;4.05;;;;;;;-142.43;100.00;63430.59;4947136;29;20059;-83
2024/01/01 01:43:33;;;;;;;9.65;3.28;;;;;;;-142.43;100.00;63430.59;4947679;29;20044;-83
2024/01/01 01:46:04;;;;;;;8.48;3.40;;;;;;;-142.43;100.00;63430.59;4950940;29;20052;-85
2024/01/01 01:48:33;;;;;;;10.15;3.20;;;;;;;-142.43;100.00;63430.59;4952969;29;20138;-83
2024/01/01 01:51:00;;;;;;;9.07;3.30;;;;;;;-142.43;100.00;63430.59;4967314;29;20057;-84
2024/01/01 01:53:28;;;;;;;9.63;3.80;;;;;;;-142.43;100.00;63430.59;4968404;29;20135;-82
2024/01/01 01:55:58;;;;;;;9.15;3.10;;;;;;;-142.43;100.00;63430.59;4969004;29;20055;-82
2024/01/01 01:58:25;;;;;;;10.50;3.20;;;;;;;-142.43;100.00;63430.59;4966950;29;20093;-81
2024/01/01 02:00:54;;;;;;;8.75;3.47;;;;;;;-142.43;100.00;63430.59;4967773;29;20283;-81
2024/01/01 02:03:22;;;;;;;10.30;3.05;;;;;;;-142.43;100.00;63430.59;4965207;28;20047;-83
2024/01/01 02:05:50;;;;;;;7.18;2.88;;;;;;;-142.43;100.00;63430.59;4965940;29;20092;-82
2024/01/01 02:08:19;;;;;;;12.10;3.38;;;;;;;-142.43;100.00;63430.59;4967313;29;20055;-81
2024/01/01 02:10:46;;;;;;;20.25;3.90;;;;;;;-142.43;100.00;63430.59;4968815;29;20052;-82
2024/01/01 02:13:26;;;;;;;15.80;3.63;;;;;;;-142.43;100.00;63430.59;4966909;29;20082;-81
2024/01/01 02:15:54;;;;;;;13.43;4.60;;;;;;;-142.43;100.00;63430.59;4965511;29;20074;-82
2024/01/01 02:18:25;;;;;;;15.23;4.07;;;;;;;-142.43;100.00;63430.59;4962743;29;20047;-82
2024/01/01 02:20:52;;;;;;;14.68;3.75;;;;;;;-142.43;100.00;63430.59;4955034;29;20107;-82
2024/01/01 02:23:20;;;;;;;14.60;3.83;;;;;;;-142.43;100.00;63430.59;4962316;29;20130;-82
2024/01/01 02:25:47;;;;;;;11.68;3.78;;;;;;;-142.43;100.00;63430.59;4965633;29;20054;-82
2024/01/01 02:28:15;;;;;;;17.63;3.83;;;;;;;-142.43;100.00;63430.59;4965573;29;20582;-83
2024/01/01 02:30:41;;;;;;;15.13;3.90;;;;;;;-142.43;100.00;63430.59;4967370;29;20047;-83
2024/01/01 02:33:09;;;;;;;11.82;3.92;;;;;;;-142.43;100.00;63430.59;4971972;29;20074;-83
2024/01/01 02:35:36;;;;;;;11.85;3.40;;;;;;;-142.43;100.00;63430.59;4977262;29;20076;-82
2024/01/01 02:38:04;;;;;;;17.88;4.00;;;;;;;-142.43;100.00;63430.59;4976364;29;20051;-82
2024/01/01 02:40:34;;;;;;;15.10;3.47;;;;;;;-142.43;100.00;63430.59;4973765;29;20502;-82
2024/01/01 02:43:01;;;;;;;12.18;3.83;;;;;;;-142.43;100.00;63430.59;4960205;29;20115;-81
2024/01/01 02:45:28;;;;;;;14.30;3.97;;;;;;;-142.43;100.00;63430.59;4964744;29;20058;-82
2024/01/01 02:47:55;;;;;;;11.50;3.53;;;;;;;-142.43;100.00;63430.59;4965000;29;20119;-83
2024/01/01 02:50:25;;;;;;;16.58;4.53;;;;;;;-142.43;100.00;63430.59;4956075;29;20054;-83
2024/01/01 02:52:52;;;;;;;13.02;4.25;;;;;;;-142.43;100.00;63430.59;4964075;29;20126;-82
2024/01/01 02:55:19;;;;;;;11.45;3.60;;;;;;;-142.43;100.00;63430.59;4963463;29;20149;-81
2024/01/01 02:57:47;;;;;;;13.57;3.33;;;;;;;-142.43;100.00;63430.59;4964121;29;20055;-82
2024/01/01 03:00:14;;;;;;;16.73;3.83;;;;;;;-142.43;100.00;63430.59;4962325;29;20127;-81
2024/01/01 03:02:41;;;;;;;12.90;3.50;;;;;;;-142.43;100.00;63430.59;4961259;29;20085;-81
2024/01/01 03:05:09;;;;;;;13.45;3.72;;;;;;;-142.43;100.00;63430.59;4963330;29;20062;-80
2024/01/01 03:07:35;;;;;;;21.63;4.45;;;;;;;-142.43;100.00;63430.59;4962626;29;20086;-78
2024/01/01 03:10:04;;;;;;;10.55;3.60;;;;;;;-142.43;100.00;63430.59;4963471;29;20074;-82
2024/01/01 03:12:33;;;;;;;12.85;4.00;;;;;;;-142.43;100.00;63430.59;4958690;29;20066;-80
2024/01/01 03:15:02;;;;;;;17.10;4.03;;;;;;;-142.43;100.00;63430.59;4967406;28;20115;-81
2024/01/01 03:17:29;;;;;;;20.98;4.75;;;;;;;-142.43;100.00;63430.59;4967004;29;20061;-81
2024/01/01 03:19:56;;;;;;;16.65;4.05;;;;;;;-142.43;100.00;63430.59;4966676;29;20420;-81
2024/01/01 03:22:22;;;;;;;15.52;3.97;;;;;;;-142.43;100.00;63430.59;4967512;29;20053;-80
2024/01/01 03:24:49;;;;;;;15.98;4.03;;;;;;;-142.43;100.00;63430.59;4961516;29;20051;-81
2024/01/01 03:27:17;;;;;;;19.80;3.90;;;;;;;-142.43;100.00;63430.59;4963921;29;20766;-81
2024/01/01 03:29:44;;;;;;;14.15;4.15;;;;;;;-142.43;100.00;63430.59;4966398;29;20051;-81
2024/01/01 03:32:13;;;;;;;15.77;4.28;;;;;;;-142.43;100.00;63430.59;4968598;29;20043;-81
2024/01/01 03:34:40;;;;;;;16.58;4.03;;;;;;;-142.43;100.00;63430.59;4971377;29;20062;-80
2024/01/01 03:37:07;;;;;;;17.58;5.70;;;;;;;-142.43;100.00;63430.59;4964458;29;20086;-80
2024/01/01 03:39:33;;;;;;;16.60;4.65;;;;;;;-142.43;100.00;63430.59;4964616;29;20139;-81
2024/01/01 03:42:00;;;;;;;13.88;3.92;;;;;;;-142.43;100.00;63430.59;4964869;29;20114;-81
2024/01/01 03:44:27;;;;;;;17.45;3.85;;;;;;;-142.43;100.00;63430.59;4965077;29;20051;-80
2024/01/01 03:46:54;;;;;;;16.60;4.43;;;;;;;-142.43;100.00;63430.59;4966452;29;20051;-81
2024/01/01 03:49:22;;;;;;;16.70;4.78;;;;;;;-142.43;100.00;63430.59;4962900;29;20054;-81
2024/01/01 03:51:49;;;;;;;15.38;4.97;;;;;;;-142.43;100.00;63430.59;4966023;29;20051;-82
2024/01/01 03:54:15;;;;;;;13.00;4.10;;;;;;;-142.43;100.00;63430.59;4966137;29;20058;-80
2024/01/01 03:56:42;;;;;;;19.98;4.57;;;;;;;-142.43;100.00;63430.59;4946942;29;20059;-80
2024/01/01 03:59:09;;;;;;;18.42;3.85;;;;;;;-142.43;100.00;63430.59;4959718;29;20082;-80
2024/01/01 04:01:36;;;;;;;23.40;4.13;;;;;;;-142.43;100.00;63430.59;4961182;29;20142;-81
2024/01/01 04:04:04;;;;;;;11.32;3.92;;;;;;;-142.43;100.00;63430.59;4960594;29;20097;-82
2024/01/01 04:06:33;;;;;;;17.10;3.85;;;;;;;-142.43;100.00;63430.59;4961550;29;20051;-81
2024/01/01 04:08:59;;;;;;;17.38;3.80;;;;;;;-142.43;100.00;63430.59;4959128;29;20051;-81
2024/01/01 04:11:26;;;;;;;14.48;4.07;;;;;;;-142.43;100.00;63430.59;4958881;29;20077;-80
2024/01/01 04:13:52;;;;;;;17.33;5.20;;;;;;;-142.43;100.00;63430.59;4959050;29;20499;-81
2024/01/01 04:16:19;;;;;;;17.77;3.78;;;;;;;-142.43;100.00;63430.59;4958960;29;20149;-81
2024/01/01 04:18:46;;;;;;;18.27;4.38;;;;;;;-142.43;100.00;63430.59;4958744;29;20141;-80
2024/01/01 04:21:12;;;;;;;20.38;4.55;;;;;;;-142.43;100.00;63430.59;4959884;29;20151;-81
2024/01/01 04:23:40;;;;;;;18.10;4.22;;;;;;;-142.43;100.00;63430.59;4959272;29;20043;-81
2024/01/01 04:26:07;;;;;;;15.07;4.68;;;;;;;-142.43;100.00;63430.59;4961127;28;20055;-80
2024/01/01 04:28:33;;;;;;;15.45;5.22;;;;;;;-142.43;100.00;63430.59;4963701;29;20130;-82
2024/01/01 04:31:00;;;;;;;17.40;4.00;;;;;;;-142.43;100.00;63430.59;4964614;29;20134;-82
2024/01/01 04:33:27;;;;;;;14.48;4.82;;;;;;;-142.43;100.00;63430.59;4965248;29;20048;-82
2024/01/01 04:35:53;;;;;;;15.05;3.97;;;;;;;-142.43;100.00;63430.59;4962584;29;20067;-79
2024/01/01 04:38:20;;;;;;;13.02;3.58;;;;;;;-142.43;100.00;63430.59;4963020;29;20055;-79
2024/01/01 04:40:48;;;;;;;14.68;4.32;;;;;;;-142.43;100.00;63430.59;4962852;29;20126;-79
2024/01/01 04:43:15;;;;;;;19.00;3.80;;;;;;;-142.43;100.00;63430.59;4962948;29;20055;-78
2024/01/01 04:45:41;;;;;;;13.32;3.75;;;;;;;-142.43;100.00;63430.59;4964773;29;20131;-82
2024/01/01 04:48:08;;;;;;;21.00;4.45;;;;;;;-142.43;100.00;63430.59;4961966;29;20469;-80
2024/01/01 04:50:35;;;;;;;13.23;3.70;;;;;;;-142.43;100.00;63430.59;4962750;29;20059;-81
2024/01/01 04:53:02;;;;;;;12.80;3.70;;;;;;;-142.43;100.00;63430.59;4964908;29;20109;-80
2024/01/01 04:55:28;;;;;;;11.82;3.38;;;;;;;-142.43;100.00;63430.59;4964139;29;20058;-80
2024/01/01 04:57:56;;;;;;;14.55;4.72;;;;;;;-142.43;100.00;63430.59;4962085;29;20560;-80
2024/01/01 05:00:23;;;;;;;12.90;4.00;;;;;;;-142.43;100.00;63430.59;4962616;29;20110;-79
2024/01/01 05:02:49;;;;;;;14.85;4.38;;;;;;;-142.43;100.00;63430.59;4962429;29;20126;-80
2024/01/01 05:05:16;;;;;;;14.93;3.97;;;;;;;-142.43;100.00;63430.59;4965075;29;20055;-79
2024/01/01 05:07:43;;;;;;;20.95;4.35;;;;;;;-142.43;100.00;63430.59;4970756;29;20557;-79
2024/01/01 05:10:11;;;;;;;16.30;4.00;;;;;;;-142.43;100.00;63430.59;4971348;29;20078;-79
2024/01/01 05:12:38;;;;;;;17.17;4.20;;;;;;;-142.43;100.00;63430.59;4970511;29;20059;-80
2024/01/01 05:15:07;;;;;;;16.65;4.03;;;;;;;-142.43;100.00;63430.59;4963333;29;20086;-80
2024/01/01 05:17:34;;;;;;;14.98;4.20;;;;;;;-142.43;100.00;63430.59;4962083;29;20066;-80
2024/01/01 05:20:03;;;;;;;16.50;4.25;;;;;;;-142.43;100.00;63430.59;4963522;29;20408;-79
2024/01/01 05:22:30;;;;;;;16.27;3.92;;;;;;;-142.43;100.00;63430.59;4963502;29;20106;-80
2024/01/01 05:24:57;;;;;;;16.10;4.15;;;;;;;-142.43;100.00;63430.59;4962734;29;20138;-80
2024/01/01 05:27:24;;;;;;;19.13;4.63;;;;;;;-142.43;100.00;63430.59;4963965;29;20082;-80
2024/01/01 05:29:51;;;;;;;19.48;5.05;;;;;;;-142.43;100.00;63430.59;4963477;29;20094;-81
2024/01/01 05:32:19;;;;;;;12.38;3.67;;;;;;;-142.43;100.00;63430.59;4963508;29;20086;-82
2024/01/01 05:34:46;;;;;;;19.17;4.05;;;;;;;-142.43;100.00;63430.59;4962654;29;20043;-81
2024/01/01 05:37:13;;;;;;;15.60;4.05;;;;;;;-142.43;100.00;63430.59;4963896;28;20062;-81
2024/01/01 05:39:40;;;;;;;17.55;3.70;;;;;;;-142.43;100.00;63430.59;4962590;29;20063;-81
2024/01/01 05:42:06;;;;;;;21.17;4.78;;;;;;;-142.43;100.00;63430.59;4963555;29;20051;-81
2024/01/01 05:44:33;;;;;;;14.63;3.47;;;;;;;-142.43;100.00;63430.59;4963431;29;20091;-80
2024/01/01 05:46:59;;;;;;;10.70;3.78;;;;;;;-142.43;100.00;63430.59;4962254;29;20138;-81
2024/01/01 05:49:28;;;;;;;17.40;4.18;;;;;;;-142.43;100.00;63430.59;4960188;29;20530;-81
2024/01/01 05:51:54;;;;;;;13.45;4.03;;;;;;;-142.43;100.00;63430.59;4964926;29;20039;-81
2024/01/01 05:54:21;;;;;;;14.55;3.92;;;;;;;-142.43;100.00;63430.59;4961605;29;20048;-81
2024/01/01 05:56:47;;;;;;;21.00;3.92;;;;;;;-142.43;100.00;63430.59;4961674;29;20051;-81
2024/01/01 05:59:14;;;;;;;19.05;5.63;;;;;;;-142.43;100.00;63430.59;4960509;29;20141;-82
2024/01/01 06:01:41;;;;;;;18.70;4.40;;;;;;;-142.43;100.00;63430.59;4962574;29;20146;-81
2024/01/01 06:04:07;;;;;;;15.18;4.43;;;;;;;-142.43;100.00;63430.59;4961392;29;20047;-81
2024/01/01 06:06:39;;;;;;;18.17;3.65;;;;;;;-142.43;100.00;63430.59;4961836;29;20394;-82
2024/01/01 06:09:06;;;;;;;14.20;3.50;;;;;;;-142.43;100.00;63430.59;4961124;29;20087;-82
2024/01/01 06:11:33;;;;;;;16.23;4.28;;;;;;;-142.43;100.00;63430.59;4962305;29;20061;-82
2024/01/01 06:14:00;;;;;;;16.25;4.68;;;;;;;-142.43;100.00;63430.59;4961273;29;20071;-81
2024/01/01 06:16:27;;;;;;;15.85;4.05;;;;;;;-142.43;100.00;63430.59;4960148;29;20058;-81
2024/01/01 06:18:53;;;;;;;16.42;5.22;;;;;;;-142.43;100.00;63430.59;4959941;29;20050;-81
2024/01/01 06:21:19;;;;;;;15.77;4.00;;;;;;;-142.43;100.00;63430.59;4959905;29;20510;-81
2024/01/01 06:23:47;;;;;;;16.52;4.30;;;;;;;-142.43;100.00;63430.59;4962152;29;20201;-81
2024/01/01 06:26:13;;;;;;;14.18;3.95;;;;;;;-142.43;100.00;63430.59;4959434;29;20051;-80
2024/01/01 06:28:40;;;;;;;13.32;3.90;;;;;;;-142.43;100.00;63430.59;4958881;29;20142;-80
2024/01/01 06:31:07;;;;;;;15.35;4.10;;;;;;;-142.43;100.00;63430.59;4960168;29;20145;-80
2024/01/01 06:33:33;;;;;;;15.80;4.13;;;;;;;-142.43;100.00;63430.59;4959605;29;20051;-80
2024/01/01 06:36:00;;;;;;;15.10;4.50;;;;;;;-142.43;100.00;63430.59;4955436;29;20089;-80
2024/01/01 06:38:27;;;;;;;14.70;4.03;;;;;;;-142.43;100.00;63430.59;4957327;29;20530;-80
2024/01/01 06:40:55;;;;;;;15.65;3.95;;;;;;;-142.43;100.00;63430.59;4957079;29;20054;-80
2024/01/01 06:43:36;;;;;;;12.48;4.75;;;;;;;-142.43;100.00;63430.59;4959267;29;20043;-80
2024/01/01 06:46:15;;;;;;;15.57;3.78;;;;;;;-142.43;100.00;63430.59;4954134;29;20138;-80
2024/01/01 06:48:42;;;;;;;12.73;4.07;;;;;;;-142.43;100.00;63430.59;4950781;28;20532;-80
2024/01/01 06:51:11;;;;;;;15.38;4.05;;;;;;;-142.43;100.00;63430.59;4958488;29;20138;-81
2024/01/01 06:53:41;;;;;;;9.93;4.45;;;;;;;-142.43;100.00;63430.59;4958675;29;20089;-81
2024/01/01 06:56:10;;;;;;;12.45;3.72;;;;;;;-142.43;100.00;63430.59;4956670;29;20050;-81
2024/01/01 06:59:07;;;;;;;18.83;4.15;;;;;;;-142.43;100.00;63430.59;4956276;29;20066;-81
2024/01/01 07:01:34;;;;;;;15.65;3.92;;;;;;;-142.43;100.00;63430.59;4950625;29;20134;-81
2024/01/01 07:04:01;;;;;;;16.25;3.85;;;;;;;-142.43;100.00;63430.59;4954276;29;20051;-81
2024/01/01 07:06:27;;;;;;;13.02;4.20;;;;;;;-142.43;100.00;63430.59;4957183;29;20142;-80
2024/01/01 07:08:54;;;;;;;13.90;4.85;;;;;;;-142.43;100.00;63430.59;4958586;29;20134;-81
2024/01/01 07:11:22;;;;;;;13.68;4.13;;;;;;;-142.43;100.00;63430.59;4958384;29;20149;-81
2024/01/01 07:13:49;;;;;;;15.52;4.50;;;;;;;-142.43;100.00;63430.59;4957334;29;20175;-80
2024/01/01 07:16:15;;;;;;;11.73;3.72;;;;;;;-142.43;100.00;63430.59;4955833;29;20518;-80
2024/01/01 07:18:42;;;;;;;16.08;3.95;;;;;;;-142.43;100.00;63430.59;4963034;29;20155;-80
2024/01/01 07:21:08;;;;;;;15.13;3.53;;;;;;;-142.43;100.00;63430.59;4965187;29;20090;-80
2024/01/01 07:23:35;;;;;;;12.75;3.60;;;;;;;-142.43;100.00;63430.59;4970470;29;20086;-80
2024/01/01 07:26:02;;;;;;;14.98;3.35;;;;;;;-142.43;100.00;63430.59;4962468;29;20125;-80
2024/01/01 07:28:30;;;;;;;13.00;4.43;;;;;;;-142.43;100.00;63430.59;4957062;29;20434;-81
2024/01/01 07:30:57;;;;;;;10.70;3.15;;;;;;;-142.43;100.00;63430.59;4958418;29;20111;-80
2024/01/01 07:33:24;;;;;;;14.02;4.22;;;;;;;-142.43;100.00;63430.59;4958639;29;20069;-80
2024/01/01 07:35:50;;;;;;;12.65;3.72;;;;;;;-142.43;100.00;63430.59;4954033;29;20090;-79
2024/01/01 07:38:17;;;;;;;12.15;3.42;;;;;;;-142.43;100.00;63430.59;4957570;29;20086;-80
2024/01/01 07:40:44;;;;;;;11.15;3.05;;;;;;;-142.43;100.00;63430.59;4958176;29;20055;-80
2024/01/01 07:43:11;;;;;;;13.38;3.58;;;;;;;-142.43;100.00;63430.59;4958622;29;20442;-81
2024/01/01 07:45:39;;;;;;;10.20;3.90;;;;;;;-142.43;100.00;63430.59;4973564;28;20110;-80
2024/01/01 07:48:06;;;;;;;14.10;4.13;;;;;;;-142.43;100.00;63430.59;4974608;28;20114;-81
2024/01/01 07:50:33;;;;;;;11.18;3.28;;;;;;;-142.43;100.00;63430.59;4973688;28;20514;-80
2024/01/01 07:53:00;;;;;;;7.88;3.30;;;;;;;-142.43;100.00;63430.59;4974377;28;20509;-81
2024/01/01 07:55:27;;;;;;;13.60;4.68;;;;;;;-142.43;100.00;63430.59;4973914;28;20085;-81
2024/01/01 07:57:53;;;;;;;13.07;4.05;;;;;;;-142.43;100.00;63430.59;4974718;28;20125;-80
2024/01/01 08:00:23;;;;;;;8.38;2.95;;;;;;;-142.43;100.00;63430.59;4977123;28;20058;-81
2024/01/01 08:02:51;;;;;;;11.25;3.75;;;;;;;-142.43;100.00;63430.59;4979142;28;20089;-80
2024/01/01 08:05:21;;;;;;;10.85;4.18;;;;;;;-142.43;100.00;63430.59;4976109;28;20130;-81
2024/01/01 08:07:48;;;;;;;7.90;3.13;;;;;;;-142.43;100.00;63430.59;4978589;28;20138;-82
2024/01/01 08:10:15;;;;;;;8.65;4.07;;;;;;;-142.43;100.00;63430.59;4982243;28;20329;-81
2024/01/01 08:12:42;;;;;;;9.05;2.72;;;;;;;-142.43;100.00;63430.59;4980416;28;20065;-81
2024/01/01 08:15:09;;;;;;;8.13;3.00;;;;;;;-142.43;100.00;63430.59;4972836;28;20110;-81
2024/01/01 08:17:36;;;;;;;6.70;2.78;;;;;;;-142.43;100.00;63430.59;4975218;28;20513;-79
2024/01/01 08:20:04;;;;;;;8.00;3.55;;;;;;;-142.43;100.00;63430.59;4975269;28;20057;-81
2024/01/01 08:22:31;;;;;;;8.27;3.22;;;;;;;-142.43;100.00;63430.59;4974885;28;20110;-81
2024/01/01 08:24:58;;;;;;;8.60;3.53;;;;;;;-142.43;100.00;63430.59;4973699;28;20137;-81
2024/01/01 08:27:24;;;;;;;8.70;3.22;;;;;;;-142.43;100.00;63430.59;4975989;28;20137;-80
2024/01/01 08:29:51;;;;;;;8.95;2.92;;;;;;;-142.43;100.00;63430.59;4975257;28;20130;-80
2024/01/01 08:32:17;;;;;;;6.07;2.40;;;;;;;-142.43;100.00;63430.59;4975393;28;20651;-80
2024/01/01 08:34:44;;;;;;;6.85;2.45;;;;;;;-142.43;100.00;63430.59;4973189;28;20074;-80
2024/01/01 08:37:12;;;;;;;5.55;1.90;;;;;;;-142.43;100.00;63430.59;4975657;28;20083;-81
2024/01/01 08:39:37;;;;;;;7.28;2.22;;;;;;;-142.43;100.00;63430.59;4975733;28;20050;-81
2024/01/01 08:42:05;;;;;;;7.45;2.85;;;;;;;-142.43;100.00;63430.59;4975122;28;20054;-81
2024/01/01 08:44:31;;;;;;;6.72;2.65;;;;;;;-142.43;100.00;63430.59;4972727;28;20641;-81
2024/01/01 08:47:00;;;;;;;6.68;2.88;;;;;;;-142.43;100.00;63430.59;4974274;28;20078;-81
2024/01/01 08:49:27;;;;;;;8.18;3.17;;;;;;;-142.43;100.00;63430.59;4975175;28;20274;-81
2024/01/01 08:51:53;;;;;;;5.50;2.30;;;;;;;-142.43;100.00;63430.59;4975979;28;20142;-81
2024/01/01 08:54:21;;;;;;;7.30;2.08;;;;;;;-142.43;100.00;63430.59;4973003;28;20082;-80
2024/01/01 08:56:48;;;;;;;6.20;2.75;;;;;;;-142.43;100.00;63430.59;4975697;28;20089;-81
2024/01/01 08:59:15;;;;;;;9.45;3.03;;;;;;;-142.43;100.00;63430.59;4974878;28;20090;-80
2024/01/01 09:01:44;;;;;;;8.32;2.80;;;;;;;-142.43;100.00;63430.59;4977124;28;20144;-81
2024/01/01 09:04:11;;;;;;;6.93;3.00;;;;;;;-142.43;100.00;63430.59;4974574;28;20374;-80
2024/01/01 09:06:37;;;;;;;8.23;3.22;;;;;;;-142.43;100.00;63430.59;4974337;28;20122;-80
2024/01/01 09:09:04;;;;;;;7.05;3.25;;;;;;;-142.43;100.00;63430.59;4973256;28;20050;-80
2024/01/01 09:11:32;;;;;;;6.15;2.13;;;;;;;-142.43;100.00;63430.59;4975148;28;20118;-81
2024/01/01 09:14:00;;;;;;;5.97;2.67;;;;;;;-142.43;100.00;63430.59;4978137;28;20129;-81
2024/01/01 09:16:31;;;;;;;7.65;2.80;;;;;;;-142.43;100.00;63430.59;4971794;28;20434;-80
2024/01/01 09:19:01;;;;;;;8.75;2.40;;;;;;;-142.43;100.00;63430.59;4977838;28;20509;-81
2024/01/01 09:21:31;;;;;;;7.70;2.65;;;;;;;-142.43;100.00;63430.59;4980529;28;20078;-81
2024/01/01 09:24:07;;;;;;;7.45;2.40;;;;;;;-142.43;100.00;63430.59;4975056;28;20055;-80
2024/01/01 09:26:37;;;;;;;6.53;2.45;;;;;;;-142.43;100.00;63430.59;4979016;28;20082;-81
2024/01/01 09:29:05;;;;;;;8.32;3.67;;;;;;;-142.43;100.00;63430.59;4982155;28;20055;-80
2024/01/01 09:31:32;;;;;;;5.40;2.10;;;;;;;-142.43;100.00;63430.59;4990650;28;20124;-79
2024/01/01 09:34:00;;;;;;;6.25;2.63;;;;;;;-142.43;100.00;63430.59;4992568;28;20053;-80
2024/01/01 09:36:29;;;;;;;7.57;2.72;;;;;;;-142.43;100.00;63430.59;4987242;28;20569;-79
2024/01/01 09:38:55;;;;;;;4.78;2.10;;;;;;;-142.43;100.00;63430.59;4983291;28;20405;-80
2024/01/01 09:41:27;;;;;;;8.93;2.47;;;;;;;-142.43;100.00;63430.59;4978894;28;20055;-81
2024/01/01 09:43:58;;;;;;;8.65;2.60;;;;;;;-142.43;100.00;63430.59;4973560;28;20047;-81
2024/01/01 09:46:28;;;;;;;10.27;3.45;;;;;;;-142.43;100.00;63430.59;4978795;28;20054;-81
2024/01/01 09:48:55;;;;;;;9.18;2.90;;;;;;;-142.43;100.00;63430.59;4974096;28;20129;-80
2024/01/01 09:51:25;;;;;;;9.48;3.95;;;;;;;-142.43;100.00;63430.59;4977225;28;20517;-81
2024/01/01 09:53:52;;;;;;;12.13;3.28;;;;;;;-142.43;100.00;63430.59;4980576;28;20137;-81
2024/01/01 09:56:21;;;;;;;9.45;3.60;;;;;;;-142.43;100.00;63430.59;4980095;28;20418;-82
2024/01/01 09:58:48;;;;;;;8.77;3.25;;;;;;;-142.43;100.00;63430.59;4972358;28;20074;-81
2024/01/01 10:01:23;;;;;;;9.70;4.25;;;;;;;-142.43;100.00;63430.59;4979211;28;20061;-80
2024/01/01 10:04:03;;;;;;;10.77;3.90;;;;;;;-142.43;100.00;63430.59;4976068;28;20138;-81
2024/01/01 10:06:30;;;;;;;9.50;3.20;;;;;;;-142.43;100.00;63430.59;4978258;28;20382;-80
2024/01/01 10:09:11;;;;;;;8.18;3.20;;;;;;;-142.43;100.00;63430.59;4975958;28;20055;-80
2024/01/01 10:11:41;;;;;;;8.48;3.78;;;;;;;-142.43;100.00;63430.59;4980826;28;20095;-80
2024/01/01 10:14:08;;;;;;;10.57;4.18;;;;;;;-142.43;100.00;63430.59;4982569;28;20061;-80
2024/01/01 10:16:38;;;;;;;9.25;3.47;;;;;;;-142.43;100.00;63430.59;4982417;28;20059;-80
2024/01/01 10:19:10;;;;;;;7.68;3.13;;;;;;;-142.43;100.00;63430.59;4980254;28;20054;-80
2024/01/01 10:21:40;;;;;;;9.85;5.15;;;;;;;-142.43;100.00;63430.59;4981708;28;20134;-80
2024/01/01 10:24:24;;;;;;;11.02;5.60;;;;;;;-142.43;100.00;63430.59;4980187;28;20051;-81
2024/01/01 10:26:53;;;;;;;8.15;2.78;;;;;;;-142.43;100.00;63430.59;4975082;28;20054;-81
2024/01/01 10:29:24;;;;;;;10.25;3.85;;;;;;;-142.43;100.00;63430.59;4980936;28;20055;-82
2024/01/01 10:31:57;;;;;;;9.70;3.05;;;;;;;-142.43;100.00;63430.59;4982001;28;20119;-81
2024/01/01 10:34:27;;;;;;;10.40;3.13;;;;;;;-142.43;100.00;63430.59;4981355;28;20473;-83
2024/01/01 10:36:58;;;;;;;11.93;3.55;;;;;;;-142.43;100.00;63430.59;4975636;28;20130;-81
2024/01/01 10:39:33;;;;;;;10.38;2.90;;;;;;;-142.43;100.00;63430.59;4978839;28;20058;-82
2024/01/01 10:42:02;;;;;;;7.88;2.88;;;;;;;-142.43;100.00;63430.59;4979464;28;20573;-81
2024/01/01 10:44:29;;;;;;;12.60;3.42;;;;;;;-142.43;100.00;63430.59;4978533;28;20110;-80
2024/01/01 10:46:59;;;;;;;15.35;3.60;;;;;;;-142.43;100.00;63430.59;4972692;28;20138;-81
2024/01/01 10:49:31;;;;;;;13.77;4.82;;;;;;;-142.43;100.00;63430.59;4976370;28;20069;-81
2024/01/01 10:52:11;;;;;;;15.82;3.83;;;;;;;-142.43;100.00;63430.59;4977376;28;20443;-81
2024/01/01 10:55:00;;;;;;;16.27;5.65;;;;;;;-142.43;100.00;63430.59;4979100;28;20145;-81
2024/01/01 10:57:49;;;;;;;9.45;3.72;;;;;;;-142.43;100.00;63430.59;4978673;28;20050;-81
2024/01/01 11:00:23;;;;;;;7.97;2.88;;;;;;;-142.43;100.00;63430.59;4979147;28;20051;-81
2024/01/01 11:02:51;;;;;;;14.75;4.85;;;;;;;-142.43;100.00;63430.59;4979145;28;20074;-82
2024/01/01 11:05:19;;;;;;;9.82;3.03;;;;;;;-142.43;100.00;63430.59;4978303;28;20110;-81
2024/01/01 11:07:58;;;;;;;8.98;3.15;;;;;;;-142.43;100.00;63430.59;4978667;28;20107;-80
2024/01/01 11:10:44;;;;;;;12.38;3.10;;;;;;;-142.43;100.00;63430.59;4978006;28;20058;-81
2024/01/01 11:13:12;;;;;;;8.88;3.15;;;;;;;-142.43;100.00;63430.59;4973729;28;20554;-81
2024/01/01 11:15:43;;;;;;;10.48;3.28;;;;;;;-142.43;100.00;63430.59;4974330;28;20075;-81
2024/01/01 11:18:16;;;;;;;5.95;2.55;;;;;;;-142.43;100.00;63430.59;4972761;28;20106;-81
2024/01/01 11:20:51;;;;;;;10.40;3.40;;;;;;;-142.43;100.00;63430.59;4977523;28;20047;-80
2024/01/01 11:23:40;;;;;;;11.23;2.90;;;;;;;-142.43;100.00;63430.59;4993117;28;20030;-81
2024/01/01 11:26:24;;;;;;;7.95;3.13;;;;;;;-142.43;100.00;63430.59;4993307;28;20047;-80